Time;durP1;ratioP1;P1;durP2;ratioP2;P2;SDS_P1;SDS_P2;PMS_P1;PMS_P2;Temp;Humidity;BMP_temperature;BMP_pressure;BME280_temperature;BME280_humidity;BME280_pressure;Samples;Min_cycle;Max_cycle;Signal;HPM_P1;HPM_P2
2021/12/03 00:00:12;;;;;;;5.85;5.00;;;;;;;;;;5095020;28;20277;-81
2021/12/03 00:02:39;;;;;;;6.78;5.78;;;;;;;;;;5094486;28;20203;-81
2021/12/03 00:05:10;;;;;;;5.20;4.70;;;;;;;;;;5094604;28;20835;-81
2021/12/03 00:07:40;;;;;;;5.10;4.47;;;;;;;;;;5094721;28;20221;-82
2021/12/03 00:10:10;;;;;;;5.03;4.53;;;;;;;;;;5094798;28;20207;-82
2021/12/03 00:12:38;;;;;;;5.07;4.50;;;;;;;;;;5094933;28;20181;-82
2021/12/03 00:15:07;;;;;;;5.75;4.60;;;;;;;;;;5094782;28;20559;-83
2021/12/03 00:17:35;;;;;;;5.45;4.55;;;;;;;;;;5094786;28;20232;-82
2021/12/03 00:20:02;;;;;;;8.02;4.75;;;;;;;;;;5094252;28;20193;-82
2021/12/03 00:22:31;;;;;;;5.45;4.88;;;;;;;;;;5094283;28;20211;-82
2021/12/03 00:24:59;;;;;;;6.90;5.90;;;;;;;;;;5093746;28;20588;-82
2021/12/03 00:27:26;;;;;;;5.78;5.18;;;;;;;;;;5093853;28;20238;-82
2021/12/03 00:29:54;;;;;;;6.28;4.60;;;;;;;;;;5094407;28;20595;-82
2021/12/03 00:32:21;;;;;;;4.75;4.13;;;;;;;;;;5094509;28;20197;-82
2021/12/03 00:34:49;;;;;;;3.70;3.40;;;;;;;;;;5073884;28;20647;-82
2021/12/03 00:37:16;;;;;;;5.25;4.75;;;;;;;;;;5081544;28;20216;-81
2021/12/03 00:39:45;;;;;;;6.43;5.45;;;;;;;;;;5094324;28;20623;-82
2021/12/03 00:42:15;;;;;;;6.30;4.22;;;;;;;;;;5094017;28;20572;-82
2021/12/03 00:44:44;;;;;;;7.22;4.78;;;;;;;;;;5094445;28;20184;-82
2021/12/03 00:47:13;;;;;;;6.90;4.65;;;;;;;;;;5094064;28;20256;-83
2021/12/03 00:49:40;;;;;;;7.93;6.03;;;;;;;;;;5093832;28;20729;-82
2021/12/03 00:52:08;;;;;;;5.93;5.40;;;;;;;;;;5093349;28;20200;-82
2021/12/03 00:54:36;;;;;;;6.93;4.80;;;;;;;;;;5093372;28;20208;-82
2021/12/03 00:57:06;;;;;;;5.47;4.22;;;;;;;;;;5093459;28;20231;-82
2021/12/03 00:59:33;;;;;;;5.50;4.75;;;;;;;;;;5093231;28;20200;-82
2021/12/03 01:02:01;;;;;;;6.53;5.40;;;;;;;;;;5092244;28;20211;-83
2021/12/03 01:04:28;;;;;;;4.32;3.92;;;;;;;;;;5093947;28;20192;-81
2021/12/03 01:06:56;;;;;;;4.95;4.32;;;;;;;;;;5093909;28;20234;-82
2021/12/03 01:09:23;;;;;;;4.90;3.85;;;;;;;;;;5093576;28;20200;-82
2021/12/03 01:11:51;;;;;;;4.97;4.43;;;;;;;;;;5093539;28;20185;-82
2021/12/03 01:14:22;;;;;;;3.75;3.45;;;;;;;;;;5093559;28;20195;-82
2021/12/03 01:16:49;;;;;;;3.72;3.42;;;;;;;;;;5093733;28;20208;-82
2021/12/03 01:19:17;;;;;;;3.47;3.17;;;;;;;;;;5093475;28;20530;-83
2021/12/03 01:21:46;;;;;;;6.38;4.03;;;;;;;;;;5093365;28;20569;-83
2021/12/03 01:24:14;;;;;;;4.13;3.50;;;;;;;;;;5093644;28;20620;-82
2021/12/03 01:26:43;;;;;;;3.92;3.53;;;;;;;;;;5093199;28;20224;-82
2021/12/03 01:29:11;;;;;;;4.35;3.95;;;;;;;;;;5094260;28;20204;-82
2021/12/03 01:31:40;;;;;;;3.17;2.97;;;;;;;;;;5093667;28;20204;-82
2021/12/03 01:34:07;;;;;;;2.60;2.40;;;;;;;;;;5093576;28;20189;-83
2021/12/03 01:36:35;;;;;;;2.92;2.53;;;;;;;;;;5093335;28;20567;-82
2021/12/03 01:39:03;;;;;;;5.40;4.70;;;;;;;;;;5093238;28;20680;-81
2021/12/03 01:41:33;;;;;;;6.07;5.47;;;;;;;;;;5093737;28;20277;-82
2021/12/03 01:44:02;;;;;;;3.95;3.58;;;;;;;;;;5093458;28;20271;-83
2021/12/03 01:46:31;;;;;;;4.45;3.97;;;;;;;;;;5093445;28;20247;-83
2021/12/03 01:49:01;;;;;;;6.07;5.05;;;;;;;;;;5093523;28;20184;-82
2021/12/03 01:51:29;;;;;;;5.07;4.68;;;;;;;;;;5093094;28;20552;-81
2021/12/03 01:53:58;;;;;;;7.53;6.60;;;;;;;;;;5093228;28;20564;-82
2021/12/03 01:56:25;;;;;;;5.70;5.10;;;;;;;;;;5093024;28;20654;-82
2021/12/03 01:58:54;;;;;;;7.60;5.57;;;;;;;;;;5093051;28;20581;-82
2021/12/03 02:01:26;;;;;;;5.50;4.82;;;;;;;;;;5093225;28;20180;-82
2021/12/03 02:03:57;;;;;;;7.10;6.25;;;;;;;;;;5092936;28;20204;-81
2021/12/03 02:06:28;;;;;;;6.88;5.88;;;;;;;;;;5093154;28;20181;-82
2021/12/03 02:08:57;;;;;;;6.35;5.75;;;;;;;;;;5093226;28;20199;-82
2021/12/03 02:11:25;;;;;;;6.53;4.93;;;;;;;;;;5093170;28;20200;-82
2021/12/03 02:13:55;;;;;;;6.85;5.30;;;;;;;;;;5094610;28;20184;-82
2021/12/03 02:16:24;;;;;;;6.30;4.50;;;;;;;;;;5097143;28;20199;-82
2021/12/03 02:18:52;;;;;;;4.63;4.22;;;;;;;;;;5076482;28;20188;-83
2021/12/03 02:21:22;;;;;;;4.88;4.35;;;;;;;;;;5076393;28;20201;-82
2021/12/03 02:23:51;;;;;;;12.80;7.45;;;;;;;;;;5076496;28;20209;-81
2021/12/03 02:26:20;;;;;;;6.60;4.78;;;;;;;;;;5095409;28;20278;-82
2021/12/03 02:28:51;;;;;;;5.35;4.43;;;;;;;;;;5096950;28;20196;-81
2021/12/03 02:31:21;;;;;;;5.45;4.47;;;;;;;;;;5097114;28;20188;-82
2021/12/03 02:33:49;;;;;;;7.85;4.90;;;;;;;;;;5096975;28;20562;-82
2021/12/03 02:36:19;;;;;;;5.38;4.20;;;;;;;;;;5096698;28;20800;-83
2021/12/03 02:38:48;;;;;;;4.30;3.67;;;;;;;;;;5097097;28;20200;-83
2021/12/03 02:41:16;;;;;;;6.35;5.65;;;;;;;;;;5096871;28;20204;-82
2021/12/03 02:43:44;;;;;;;4.57;3.88;;;;;;;;;;5096452;28;20212;-82
2021/12/03 02:46:12;;;;;;;8.35;4.78;;;;;;;;;;5096355;28;20208;-82
2021/12/03 02:48:40;;;;;;;5.88;3.72;;;;;;;;;;5096768;28;20595;-82
2021/12/03 02:51:09;;;;;;;4.82;4.38;;;;;;;;;;5096546;28;20642;-82
2021/12/03 02:53:38;;;;;;;3.42;3.03;;;;;;;;;;5096377;28;20189;-82
2021/12/03 02:56:07;;;;;;;6.10;4.43;;;;;;;;;;5096848;28;20181;-82
2021/12/03 02:58:35;;;;;;;5.80;4.32;;;;;;;;;;5096369;28;20225;-82
2021/12/03 03:01:05;;;;;;;4.28;3.88;;;;;;;;;;5096328;28;20196;-83
2021/12/03 03:03:33;;;;;;;5.80;4.28;;;;;;;;;;5096493;28;20208;-82
2021/12/03 03:06:03;;;;;;;6.57;5.78;;;;;;;;;;5096169;28;20210;-83
2021/12/03 03:08:31;;;;;;;4.65;3.88;;;;;;;;;;5096003;28;20224;-82
2021/12/03 03:11:03;;;;;;;4.28;3.40;;;;;;;;;;5095835;28;20199;-82
2021/12/03 03:13:30;;;;;;;4.18;3.78;;;;;;;;;;5096191;28;20185;-82
2021/12/03 03:15:59;;;;;;;4.00;3.45;;;;;;;;;;5096037;28;20181;-82
2021/12/03 03:18:28;;;;;;;4.15;3.72;;;;;;;;;;5095925;28;20216;-82
2021/12/03 03:20:59;;;;;;;3.42;3.10;;;;;;;;;;5095629;28;20556;-83
2021/12/03 03:23:27;;;;;;;4.28;3.15;;;;;;;;;;5096062;28;20295;-82
2021/12/03 03:25:55;;;;;;;3.17;2.88;;;;;;;;;;5094964;28;20184;-82
2021/12/03 03:28:24;;;;;;;4.47;2.97;;;;;;;;;;5095733;28;20608;-82
2021/12/03 03:30:54;;;;;;;3.28;2.97;;;;;;;;;;5095944;28;20650;-82
2021/12/03 03:33:23;;;;;;;3.70;3.30;;;;;;;;;;5096045;28;20185;-82
2021/12/03 03:35:50;;;;;;;4.13;2.92;;;;;;;;;;5095413;28;20177;-82
2021/12/03 03:38:18;;;;;;;2.78;2.55;;;;;;;;;;5095611;28;20277;-82
2021/12/03 03:40:47;;;;;;;3.42;2.92;;;;;;;;;;5095642;28;20192;-82
2021/12/03 03:43:15;;;;;;;3.15;2.63;;;;;;;;;;5095162;28;20204;-83
2021/12/03 03:45:45;;;;;;;2.00;1.88;;;;;;;;;;5095740;28;20193;-82
2021/12/03 03:48:12;;;;;;;2.92;1.98;;;;;;;;;;5095714;28;20550;-83
2021/12/03 03:50:41;;;;;;;2.13;1.88;;;;;;;;;;5095937;28;20211;-83
2021/12/03 03:53:09;;;;;;;1.95;1.70;;;;;;;;;;5095559;28;20191;-83
2021/12/03 03:55:36;;;;;;;1.88;1.60;;;;;;;;;;5096276;28;20196;-83
2021/12/03 03:58:06;;;;;;;1.23;1.23;;;;;;;;;;5095461;28;20217;-83
2021/12/03 04:00:38;;;;;;;1.88;1.40;;;;;;;;;;5094437;28;20196;-83
2021/12/03 04:03:07;;;;;;;1.40;1.30;;;;;;;;;;5095924;28;20204;-83
2021/12/03 04:05:35;;;;;;;1.58;1.48;;;;;;;;;;5096023;28;20184;-83
2021/12/03 04:08:03;;;;;;;1.38;1.23;;;;;;;;;;5095361;28;20212;-83
2021/12/03 04:10:30;;;;;;;1.17;1.17;;;;;;;;;;5095736;28;20185;-83
2021/12/03 04:12:58;;;;;;;1.33;1.23;;;;;;;;;;5096043;28;20627;-83
2021/12/03 04:15:26;;;;;;;1.45;1.23;;;;;;;;;;5095767;28;20185;-83
2021/12/03 04:17:53;;;;;;;1.95;1.70;;;;;;;;;;5095733;28;20223;-81
2021/12/03 04:20:23;;;;;;;7.55;3.15;;;;;;;;;;5095053;28;20192;-83
2021/12/03 04:22:51;;;;;;;2.60;2.38;;;;;;;;;;5095658;28;20199;-82
2021/12/03 04:25:21;;;;;;;2.72;2.35;;;;;;;;;;5095529;28;20573;-82
2021/12/03 04:27:50;;;;;;;3.47;3.17;;;;;;;;;;5094145;28;20236;-83
2021/12/03 04:30:23;;;;;;;4.78;3.78;;;;;;;;;;5095605;28;20191;-83
2021/12/03 04:32:52;;;;;;;2.22;2.03;;;;;;;;;;5095545;28;20200;-83
2021/12/03 04:35:20;;;;;;;4.18;3.22;;;;;;;;;;5095048;28;20201;-83
2021/12/03 04:37:49;;;;;;;3.53;2.65;;;;;;;;;;5094830;28;20245;-83
2021/12/03 04:40:18;;;;;;;3.42;3.13;;;;;;;;;;5094700;28;20196;-83
2021/12/03 04:42:47;;;;;;;3.25;2.95;;;;;;;;;;5095297;28;20200;-83
2021/12/03 04:45:21;;;;;;;2.72;2.53;;;;;;;;;;5094789;28;20212;-83
2021/12/03 04:47:51;;;;;;;4.47;3.60;;;;;;;;;;5094586;28;20216;-83
2021/12/03 04:50:20;;;;;;;3.40;2.95;;;;;;;;;;5094649;28;20181;-82
2021/12/03 04:52:49;;;;;;;2.63;2.42;;;;;;;;;;5094124;28;20552;-82
2021/12/03 04:55:18;;;;;;;3.92;3.33;;;;;;;;;;5094684;28;20197;-82
2021/12/03 04:57:46;;;;;;;3.70;2.78;;;;;;;;;;5094299;28;20224;-82
2021/12/03 05:00:18;;;;;;;3.35;3.05;;;;;;;;;;5093969;28;20221;-83
2021/12/03 05:02:46;;;;;;;2.95;2.65;;;;;;;;;;5093913;28;20237;-81
2021/12/03 05:05:14;;;;;;;4.00;3.13;;;;;;;;;;5094014;28;20649;-82
2021/12/03 05:07:57;;;;;;;3.08;2.72;;;;;;;;;;5093914;28;20227;-82
2021/12/03 05:10:27;;;;;;;2.95;2.53;;;;;;;;;;5094117;28;20275;-82
2021/12/03 05:13:00;;;;;;;2.45;2.25;;;;;;;;;;5094210;28;20185;-82
2021/12/03 05:15:28;;;;;;;3.35;2.47;;;;;;;;;;5094003;28;20188;-81
2021/12/03 05:17:55;;;;;;;1.70;1.60;;;;;;;;;;5093229;28;20311;-83
2021/12/03 05:20:23;;;;;;;4.07;2.85;;;;;;;;;;5093755;28;20219;-82
2021/12/03 05:22:51;;;;;;;4.43;4.03;;;;;;;;;;5092983;28;20219;-83
2021/12/03 05:25:19;;;;;;;3.58;2.70;;;;;;;;;;5093638;28;20204;-82
2021/12/03 05:27:49;;;;;;;2.67;2.47;;;;;;;;;;5077401;28;20224;-82
2021/12/03 05:30:17;;;;;;;2.95;2.65;;;;;;;;;;5094610;28;20185;-82
2021/12/03 05:32:44;;;;;;;4.20;3.78;;;;;;;;;;5094089;28;20184;-83
2021/12/03 05:35:12;;;;;;;4.28;3.88;;;;;;;;;;5094359;28;20181;-82
2021/12/03 05:37:41;;;;;;;4.57;2.97;;;;;;;;;;5094671;28;20227;-82
2021/12/03 05:40:11;;;;;;;6.05;4.55;;;;;;;;;;5094807;28;20252;-82
2021/12/03 05:42:39;;;;;;;7.72;4.55;;;;;;;;;;5094657;28;20200;-82
2021/12/03 05:45:10;;;;;;;6.65;4.45;;;;;;;;;;5094107;28;20266;-82
2021/12/03 05:47:38;;;;;;;4.88;3.78;;;;;;;;;;5093118;28;20216;-83
2021/12/03 05:50:09;;;;;;;5.88;4.28;;;;;;;;;;5094175;28;20181;-83
2021/12/03 05:52:36;;;;;;;5.82;4.82;;;;;;;;;;5094629;28;20185;-82
2021/12/03 05:55:05;;;;;;;5.47;4.60;;;;;;;;;;5094126;28;20193;-82
2021/12/03 05:57:32;;;;;;;5.97;4.20;;;;;;;;;;5094192;28;20295;-83
2021/12/03 06:00:00;;;;;;;6.43;4.63;;;;;;;;;;5094462;28;20582;-84
2021/12/03 06:02:29;;;;;;;4.80;3.72;;;;;;;;;;5094135;28;20545;-81
2021/12/03 06:04:56;;;;;;;5.40;3.80;;;;;;;;;;5093664;28;20230;-82
2021/12/03 06:07:23;;;;;;;6.97;4.93;;;;;;;;;;5093674;28;20227;-83
2021/12/03 06:09:51;;;;;;;5.93;4.78;;;;;;;;;;5093161;28;20192;-81
2021/12/03 06:12:19;;;;;;;5.53;4.65;;;;;;;;;;5093913;28;20204;-81
2021/12/03 06:14:46;;;;;;;5.68;4.15;;;;;;;;;;5093958;28;20191;-82
2021/12/03 06:17:15;;;;;;;5.82;4.25;;;;;;;;;;5093994;28;20225;-81
2021/12/03 06:19:44;;;;;;;7.72;4.50;;;;;;;;;;5094286;28;20192;-81
2021/12/03 06:22:12;;;;;;;5.22;4.15;;;;;;;;;;5093801;28;20208;-81
2021/12/03 06:24:41;;;;;;;7.28;5.57;;;;;;;;;;5093797;28;20204;-81
2021/12/03 06:27:08;;;;;;;5.90;4.70;;;;;;;;;;5093019;28;20229;-81
2021/12/03 06:29:36;;;;;;;4.50;4.10;;;;;;;;;;5093443;28;20284;-81
2021/12/03 06:32:04;;;;;;;5.60;4.07;;;;;;;;;;5093169;28;20193;-81
2021/12/03 06:34:32;;;;;;;6.35;4.88;;;;;;;;;;5072340;28;20204;-81
2021/12/03 06:37:00;;;;;;;4.82;4.13;;;;;;;;;;5074289;28;20225;-81
2021/12/03 06:39:28;;;;;;;4.75;3.97;;;;;;;;;;5093204;28;20187;-81
2021/12/03 06:41:55;;;;;;;7.68;5.75;;;;;;;;;;5093182;28;20184;-80
2021/12/03 06:44:25;;;;;;;5.43;4.93;;;;;;;;;;5093374;28;20185;-81
2021/12/03 06:46:53;;;;;;;7.97;5.38;;;;;;;;;;5092892;28;20231;-82
2021/12/03 06:49:21;;;;;;;8.55;7.32;;;;;;;;;;5093292;28;20223;-81
2021/12/03 06:51:51;;;;;;;8.35;6.20;;;;;;;;;;5092890;28;20200;-81
2021/12/03 06:54:26;;;;;;;5.05;4.57;;;;;;;;;;5093027;28;20204;-82
2021/12/03 06:56:54;;;;;;;5.80;5.10;;;;;;;;;;5093493;28;20216;-82
2021/12/03 06:59:23;;;;;;;5.32;4.40;;;;;;;;;;5093587;28;20666;-80
2021/12/03 07:01:52;;;;;;;5.97;5.07;;;;;;;;;;5096940;28;20184;-84
2021/12/03 07:04:21;;;;;;;6.05;5.40;;;;;;;;;;5097475;28;20187;-84
2021/12/03 07:06:49;;;;;;;6.50;5.72;;;;;;;;;;5097210;28;20236;-81
2021/12/03 07:09:17;;;;;;;11.38;5.25;;;;;;;;;;5097516;28;20185;-81
2021/12/03 07:11:47;;;;;;;6.55;5.32;;;;;;;;;;5095754;28;20180;-81
2021/12/03 07:14:14;;;;;;;6.80;5.10;;;;;;;;;;5095602;28;20185;-82
2021/12/03 07:16:42;;;;;;;6.00;5.00;;;;;;;;;;5076417;28;20988;-83
2021/12/03 07:19:09;;;;;;;4.30;3.92;;;;;;;;;;5077037;28;20192;-82
2021/12/03 07:21:37;;;;;;;4.22;3.83;;;;;;;;;;5077798;28;20208;-82
2021/12/03 07:24:05;;;;;;;5.88;4.88;;;;;;;;;;5077417;28;20174;-82
2021/12/03 07:26:33;;;;;;;6.30;4.75;;;;;;;;;;5076651;28;20224;-83
2021/12/03 07:29:02;;;;;;;5.55;4.72;;;;;;;;;;5076388;28;20682;-82
2021/12/03 07:31:29;;;;;;;5.53;4.45;;;;;;;;;;5077123;28;20220;-81
2021/12/03 07:33:57;;;;;;;6.03;5.38;;;;;;;;;;5077334;28;20216;-82
2021/12/03 07:36:25;;;;;;;4.63;4.05;;;;;;;;;;5077431;28;20276;-82
2021/12/03 07:38:52;;;;;;;7.78;5.72;;;;;;;;;;5077774;28;20181;-83
2021/12/03 07:41:20;;;;;;;6.07;5.47;;;;;;;;;;5077201;28;20182;-82
2021/12/03 07:43:47;;;;;;;7.88;5.75;;;;;;;;;;5076590;28;20197;-81
2021/12/03 07:46:16;;;;;;;5.88;4.75;;;;;;;;;;5076321;28;20581;-81
2021/12/03 07:48:46;;;;;;;6.00;4.97;;;;;;;;;;5076480;28;20221;-80
2021/12/03 07:51:15;;;;;;;8.27;5.32;;;;;;;;;;5076201;28;20635;-80
2021/12/03 07:53:42;;;;;;;7.13;5.68;;;;;;;;;;5083625;28;20658;-80
2021/12/03 07:56:10;;;;;;;6.22;4.93;;;;;;;;;;5097177;28;20187;-81
2021/12/03 07:58:38;;;;;;;5.65;4.72;;;;;;;;;;5096408;28;20228;-81
2021/12/03 08:01:06;;;;;;;5.95;4.97;;;;;;;;;;5096274;28;20207;-80
2021/12/03 08:03:34;;;;;;;6.60;4.60;;;;;;;;;;5096697;28;20195;-81
2021/12/03 08:06:08;;;;;;;6.70;5.53;;;;;;;;;;5096269;28;20569;-81
2021/12/03 08:08:37;;;;;;;7.80;6.55;;;;;;;;;;5096733;28;20221;-81
2021/12/03 08:11:05;;;;;;;9.02;7.05;;;;;;;;;;5096063;28;20192;-81
2021/12/03 08:13:34;;;;;;;9.15;7.22;;;;;;;;;;5096082;28;20207;-81
2021/12/03 08:16:02;;;;;;;9.65;7.25;;;;;;;;;;5096592;28;20192;-81
2021/12/03 08:18:30;;;;;;;9.43;7.20;;;;;;;;;;5096005;28;20238;-82
2021/12/03 08:20:59;;;;;;;8.55;7.15;;;;;;;;;;5096091;28;20192;-81
2021/12/03 08:23:30;;;;;;;7.45;6.72;;;;;;;;;;5095841;28;20403;-81
2021/12/03 08:25:58;;;;;;;7.38;6.72;;;;;;;;;;5095661;28;20221;-81
2021/12/03 08:28:25;;;;;;;9.55;7.35;;;;;;;;;;5095028;28;20240;-81
2021/12/03 08:30:53;;;;;;;7.63;6.30;;;;;;;;;;5095995;28;20192;-81
2021/12/03 08:33:20;;;;;;;6.47;5.75;;;;;;;;;;5095857;28;20204;-81
2021/12/03 08:35:48;;;;;;;7.18;5.22;;;;;;;;;;5096145;28;20283;-81
2021/12/03 08:38:17;;;;;;;6.35;4.80;;;;;;;;;;5096033;28;20216;-83
2021/12/03 08:40:44;;;;;;;4.93;4.43;;;;;;;;;;5095788;28;20189;-81
2021/12/03 08:43:12;;;;;;;7.90;7.00;;;;;;;;;;5095620;28;20187;-81
2021/12/03 08:45:39;;;;;;;7.43;5.38;;;;;;;;;;5096155;28;20568;-81
2021/12/03 08:48:07;;;;;;;5.55;5.00;;;;;;;;;;5094944;28;20279;-80
2021/12/03 08:50:37;;;;;;;7.05;6.32;;;;;;;;;;5095309;28;20223;-80
2021/12/03 08:53:16;;;;;;;5.90;4.88;;;;;;;;;;5094992;28;20661;-80
2021/12/03 08:55:47;;;;;;;4.38;3.97;;;;;;;;;;5094395;28;20231;-80
2021/12/03 08:58:16;;;;;;;7.20;5.70;;;;;;;;;;5076375;28;20229;-80
2021/12/03 09:00:45;;;;;;;5.57;4.82;;;;;;;;;;5073931;28;20197;-81
2021/12/03 09:03:13;;;;;;;7.63;5.22;;;;;;;;;;5073702;28;20205;-81
2021/12/03 09:05:59;;;;;;;7.68;5.95;;;;;;;;;;5074935;28;20606;-84
2021/12/03 09:12:08;;;;;;;8.75;6.28;;;;;;;;;;5059656;28;20281;-82
2021/12/03 09:15:05;;;;;;;5.82;5.15;;;;;;;;;;5095376;28;20203;-81
2021/12/03 09:17:39;;;;;;;10.00;6.38;;;;;;;;;;5094814;28;20223;-81
2021/12/03 09:20:18;;;;;;;7.72;6.00;;;;;;;;;;5089182;22;20227;-83
2021/12/03 09:22:49;;;;;;;8.05;6.00;;;;;;;;;;5030830;28;20277;-81
2021/12/03 09:25:21;;;;;;;7.82;6.13;;;;;;;;;;5031799;28;20652;-87
2021/12/03 09:27:52;;;;;;;8.80;7.18;;;;;;;;;;5031610;28;20611;-86
2021/12/03 09:30:20;;;;;;;6.82;6.13;;;;;;;;;;5031690;28;20228;-87
2021/12/03 09:32:50;;;;;;;6.20;5.60;;;;;;;;;;5032764;28;20603;-86
2021/12/03 09:35:17;;;;;;;7.95;5.50;;;;;;;;;;5032562;28;20257;-85
2021/12/03 09:37:45;;;;;;;7.03;5.60;;;;;;;;;;5031590;28;20209;-88
2021/12/03 09:40:20;;;;;;;7.57;4.97;;;;;;;;;;5032135;28;20222;-85
2021/12/03 09:42:48;;;;;;;6.50;5.90;;;;;;;;;;5031630;28;20206;-86
2021/12/03 09:45:17;;;;;;;8.32;6.88;;;;;;;;;;5031905;28;20789;-87
2021/12/03 09:47:45;;;;;;;5.35;4.82;;;;;;;;;;5031065;28;20324;-88
2021/12/03 09:50:14;;;;;;;5.93;5.20;;;;;;;;;;5035118;28;20612;-85
2021/12/03 09:52:53;;;;;;;5.03;4.53;;;;;;;;;;5034656;28;20191;-85
2021/12/03 09:55:21;;;;;;;4.78;4.30;;;;;;;;;;5034976;28;20206;-88
2021/12/03 09:58:01;;;;;;;5.40;4.65;;;;;;;;;;5035253;28;20198;-87
2021/12/03 10:00:35;;;;;;;9.43;7.22;;;;;;;;;;5032928;28;20221;-88
2021/12/03 10:03:21;;;;;;;4.70;4.15;;;;;;;;;;5018539;28;20740;-86
2021/12/03 10:17:36;;;;;;;7.15;6.03;;;;;;;;;;5014440;28;20178;-84
2021/12/03 10:20:12;;;;;;;5.97;4.82;;;;;;;;;;5030085;28;20578;-83
2021/12/03 10:28:29;;;;;;;6.75;5.32;;;;;;;;;;5011750;28;20211;-83
2021/12/03 10:33:59;;;;;;;5.45;4.95;;;;;;;;;;5034981;28;20565;-83
2021/12/03 10:36:43;;;;;;;4.70;4.30;;;;;;;;;;5038108;28;20190;-83
2021/12/03 10:42:28;;;;;;;5.95;5.32;;;;;;;;;;4957693;29;20192;-85
2021/12/03 10:45:06;;;;;;;5.70;5.13;;;;;;;;;;4957847;29;20189;-82
2021/12/03 10:47:44;;;;;;;5.43;4.88;;;;;;;;;;5008099;28;20225;-86
2021/12/03 10:50:27;;;;;;;7.32;4.28;;;;;;;;;;5039314;28;20217;-85
2021/12/03 10:53:08;;;;;;;5.53;5.03;;;;;;;;;;5019011;28;20665;-84
2021/12/03 11:25:22;;;;;;;4.30;3.90;;;;;;;;;;5038051;28;20257;-83
2021/12/03 11:42:30;;;;;;;4.50;3.92;;;;;;;;;;5035529;28;20194;-84
2021/12/03 12:25:10;;;;;;;5.63;3.95;;;;;;;;;;4954591;28;20196;-83
2021/12/03 13:13:48;;;;;;;4.35;3.33;;;;;;;;;;5035390;28;20285;-83
2021/12/03 13:25:27;;;;;;;3.55;2.92;;;;;;;;;;5035017;28;20194;-83
2021/12/03 14:01:58;;;;;;;3.10;2.58;;;;;;;;;;5033624;28;20218;-82
2021/12/03 14:39:05;;;;;;;4.28;3.72;;;;;;;;;;5016942;28;20201;-82
2021/12/03 14:41:46;;;;;;;4.82;3.95;;;;;;;;;;5031828;28;20194;-82
2021/12/03 14:44:21;;;;;;;4.25;3.17;;;;;;;;;;5037726;28;20203;-82
2021/12/03 14:47:09;;;;;;;7.13;4.15;;;;;;;;;;5037630;28;20194;-80
2021/12/03 14:50:30;;;;;;;3.38;3.05;;;;;;;;;;5040849;28;20691;-82
2021/12/03 14:55:50;;;;;;;3.67;3.28;;;;;;;;;;5043678;28;20190;-81
2021/12/03 14:58:20;;;;;;;3.25;2.95;;;;;;;;;;5029267;28;20249;-81
2021/12/03 15:00:53;;;;;;;4.95;3.67;;;;;;;;;;5036948;28;20225;-81
2021/12/03 15:03:31;;;;;;;5.55;3.70;;;;;;;;;;5037787;28;20202;-81
2021/12/03 15:08:50;;;;;;;7.20;4.60;;;;;;;;;;5034887;28;20198;-82
2021/12/03 15:22:50;;;;;;;6.45;4.53;;;;;;;;;;5061078;22;20233;-85
2021/12/03 15:25:26;;;;;;;4.78;3.70;;;;;;;;;;5051712;28;20220;-85
2021/12/03 15:28:21;;;;;;;4.00;3.60;;;;;;;;;;5056583;28;20193;-85
2021/12/03 15:31:00;;;;;;;4.10;3.60;;;;;;;;;;5047285;28;20222;-84
2021/12/03 15:33:49;;;;;;;4.93;3.97;;;;;;;;;;5019450;28;20209;-85
2021/12/03 15:36:21;;;;;;;4.05;3.70;;;;;;;;;;5023401;28;20198;-84
2021/12/03 15:39:18;;;;;;;5.15;4.28;;;;;;;;;;5035568;28;20194;-85
2021/12/03 15:58:47;;;;;;;4.18;3.78;;;;;;;;;;5035346;28;20676;-86
2021/12/03 16:04:03;;;;;;;5.13;4.18;;;;;;;;;;5035378;28;20562;-86
2021/12/03 16:06:43;;;;;;;5.28;4.22;;;;;;;;;;5035358;28;20222;-86
2021/12/03 16:09:24;;;;;;;5.70;5.10;;;;;;;;;;5035096;28;20655;-87
2021/12/03 16:12:05;;;;;;;4.28;3.88;;;;;;;;;;5032141;28;20299;-87
2021/12/03 16:14:51;;;;;;;5.70;4.28;;;;;;;;;;5035170;28;20213;-85
2021/12/03 16:17:40;;;;;;;5.35;4.85;;;;;;;;;;5034529;28;20222;-87
2021/12/03 16:20:48;;;;;;;9.15;6.47;;;;;;;;;;5029704;28;20561;-87
2021/12/03 16:23:30;;;;;;;69.45;44.30;;;;;;;;;;5014502;28;20289;-87
2021/12/03 16:46:13;;;;;;;4.35;3.95;;;;;;;;;;5034299;28;20271;-88
2021/12/03 16:51:40;;;;;;;6.03;4.85;;;;;;;;;;5012835;28;20226;-88
2021/12/03 16:54:10;;;;;;;5.25;4.32;;;;;;;;;;5014486;28;20187;-88
2021/12/03 16:56:46;;;;;;;6.50;5.05;;;;;;;;;;5014050;28;20191;-88
2021/12/03 16:59:14;;;;;;;3.95;3.60;;;;;;;;;;5030319;28;20201;-88
2021/12/03 17:01:47;;;;;;;6.00;4.45;;;;;;;;;;5033785;28;20215;-87
2021/12/03 17:04:40;;;;;;;4.53;4.13;;;;;;;;;;5024444;28;20282;-86
2021/12/03 17:10:26;;;;;;;5.10;4.63;;;;;;;;;;5013043;28;20218;-87
2021/12/03 17:30:16;;;;;;;4.03;3.63;;;;;;;;;;5033336;28;20680;-86
2021/12/03 17:49:39;;;;;;;4.65;3.97;;;;;;;;;;5034325;28;20209;-87
2021/12/03 17:55:13;;;;;;;5.05;4.55;;;;;;;;;;5030326;28;20201;-87
2021/12/03 17:57:45;;;;;;;5.03;4.53;;;;;;;;;;5034875;28;20641;-86
2021/12/03 18:00:20;;;;;;;4.85;3.88;;;;;;;;;;5031062;28;20206;-85
2021/12/03 18:02:50;;;;;;;10.52;6.03;;;;;;;;;;5027930;28;20218;-84
2021/12/03 18:05:33;;;;;;;21.67;14.05;;;;;;;;;;5020913;28;20213;-84
2021/12/03 18:08:11;;;;;;;21.85;14.63;;;;;;;;;;5022110;28;20213;-84
2021/12/03 18:10:50;;;;;;;10.00;6.57;;;;;;;;;;5023198;28;20633;-85
2021/12/03 18:44:29;;;;;;;7.18;4.22;;;;;;;;;;5036255;28;20194;-83
2021/12/03 18:47:19;;;;;;;5.47;4.40;;;;;;;;;;5036213;28;20202;-84
2021/12/03 18:52:55;;;;;;;5.82;5.32;;;;;;;;;;5035976;28;20642;-84
2021/12/03 18:55:32;;;;;;;5.35;4.82;;;;;;;;;;5036167;28;20198;-86
2021/12/03 18:58:04;;;;;;;5.95;5.38;;;;;;;;;;5039189;28;20271;-85
2021/12/03 19:00:35;;;;;;;7.07;5.90;;;;;;;;;;5038381;28;20183;-86
2021/12/03 19:03:09;;;;;;;6.65;5.78;;;;;;;;;;5038554;28;20218;-87
2021/12/03 19:05:49;;;;;;;6.32;5.78;;;;;;;;;;5040551;28;20186;-87
2021/12/03 19:08:19;;;;;;;7.82;6.38;;;;;;;;;;5020338;28;20183;-86
2021/12/03 19:10:50;;;;;;;5.82;5.28;;;;;;;;;;5037241;28;20710;-85
2021/12/03 19:13:24;;;;;;;5.28;4.75;;;;;;;;;;5040185;28;20246;-86
2021/12/03 19:15:52;;;;;;;5.97;5.38;;;;;;;;;;5026740;28;20187;-85
2021/12/03 19:18:22;;;;;;;5.55;5.03;;;;;;;;;;5041630;28;20186;-86
2021/12/03 19:20:51;;;;;;;5.38;4.88;;;;;;;;;;5041147;28;20637;-85
2021/12/03 19:23:19;;;;;;;7.70;5.65;;;;;;;;;;5039882;28;20696;-86
2021/12/03 19:25:47;;;;;;;5.80;5.18;;;;;;;;;;5041727;28;20198;-84
2021/12/03 19:28:14;;;;;;;4.97;4.57;;;;;;;;;;5042877;28;20179;-86
2021/12/03 19:37:40;;;;;;;5.95;4.60;;;;;;;;;;4871641;28;20201;-86
2021/12/03 19:40:13;;;;;;;6.15;4.28;;;;;;;;;;4958907;29;20200;-85
2021/12/03 19:43:01;;;;;;;6.00;4.13;;;;;;;;;;4960239;28;20325;-86
2021/12/03 19:49:34;;;;;;;5.05;4.55;;;;;;;;;;4949668;29;20227;-85
2021/12/03 19:56:17;;;;;;;5.05;4.65;;;;;;;;;;5019639;28;20194;-85
2021/12/03 20:21:19;;;;;;;7.30;5.22;;;;;;;;;;4806874;29;20203;-83
2021/12/03 20:31:10;;;;;;;4.00;3.63;;;;;;;;;;4964619;28;20311;-83
2021/12/03 20:34:00;;;;;;;4.55;4.22;;;;;;;;;;5035812;28;20203;-84
2021/12/03 20:36:38;;;;;;;6.18;4.57;;;;;;;;;;5039266;28;20245;-85
2021/12/03 20:39:13;;;;;;;4.18;3.85;;;;;;;;;;5019870;28;20238;-83
2021/12/03 20:41:45;;;;;;;5.35;4.57;;;;;;;;;;5016947;28;20276;-85
2021/12/03 20:44:37;;;;;;;5.38;4.57;;;;;;;;;;5021138;28;20189;-85
2021/12/03 20:47:20;;;;;;;5.05;4.32;;;;;;;;;;5037235;28;20206;-83
2021/12/03 20:50:08;;;;;;;6.15;4.47;;;;;;;;;;5037523;28;20335;-84
2021/12/03 20:52:51;;;;;;;5.43;4.93;;;;;;;;;;5038625;28;20254;-84
2021/12/03 21:09:17;;;;;;;5.00;4.38;;;;;;;;;;5030176;28;20242;-85
2021/12/03 21:11:47;;;;;;;4.57;4.18;;;;;;;;;;5017353;28;20676;-85
2021/12/03 21:14:19;;;;;;;5.70;4.75;;;;;;;;;;5029671;28;20281;-84
2021/12/03 21:17:06;;;;;;;5.03;4.00;;;;;;;;;;5038257;28;20205;-85
2021/12/03 21:19:41;;;;;;;4.82;4.35;;;;;;;;;;5038040;28;20194;-85
2021/12/03 21:22:12;;;;;;;4.85;4.40;;;;;;;;;;5037441;28;20269;-85
2021/12/03 21:24:43;;;;;;;5.07;4.57;;;;;;;;;;5035582;28;20194;-85
2021/12/03 21:27:17;;;;;;;5.30;4.80;;;;;;;;;;5035636;28;20234;-86
2021/12/03 21:32:41;;;;;;;4.90;4.47;;;;;;;;;;5035912;28;20598;-85
2021/12/03 21:38:25;;;;;;;4.88;4.38;;;;;;;;;;5022671;28;20214;-86
2021/12/03 21:43:38;;;;;;;5.75;4.38;;;;;;;;;;5001235;28;20199;-86
2021/12/03 21:46:06;;;;;;;5.75;5.25;;;;;;;;;;5015547;28;20227;-85
2021/12/03 21:48:33;;;;;;;5.60;4.15;;;;;;;;;;5016161;28;20198;-85
2021/12/03 21:51:05;;;;;;;4.72;4.25;;;;;;;;;;5016186;28;20199;-86
2021/12/03 21:53:32;;;;;;;5.55;4.90;;;;;;;;;;5016691;28;20207;-85
2021/12/03 21:56:01;;;;;;;6.15;4.32;;;;;;;;;;5016279;28;20203;-85
2021/12/03 21:58:28;;;;;;;5.93;4.90;;;;;;;;;;5017508;28;20687;-85
2021/12/03 22:00:56;;;;;;;4.40;4.10;;;;;;;;;;5021462;28;20206;-85
2021/12/03 22:03:23;;;;;;;5.18;4.68;;;;;;;;;;5019099;28;20219;-85
2021/12/03 22:05:52;;;;;;;4.72;4.22;;;;;;;;;;5017977;28;20195;-85
2021/12/03 22:08:19;;;;;;;5.43;4.93;;;;;;;;;;5022831;28;20198;-87
2021/12/03 22:10:48;;;;;;;5.65;5.00;;;;;;;;;;5026102;28;20197;-83
2021/12/03 22:13:23;;;;;;;6.45;4.63;;;;;;;;;;5026938;28;20214;-83
2021/12/03 22:15:52;;;;;;;5.50;5.00;;;;;;;;;;5018166;28;20191;-83
2021/12/03 22:18:21;;;;;;;5.75;4.97;;;;;;;;;;5027766;28;20240;-85
2021/12/03 22:20:49;;;;;;;5.40;4.47;;;;;;;;;;5027485;28;20194;-86
2021/12/03 22:23:16;;;;;;;5.88;5.05;;;;;;;;;;5035081;28;20623;-84